createdAt,value
2017-12-21T00:00:41.312Z,23.43
2017-12-21T00:03:08.766Z,21.50
2017-12-21T00:05:36.247Z,21.20
2017-12-21T00:08:03.695Z,21.47
2017-12-21T00:10:31.158Z,22.03
2017-12-21T00:12:58.614Z,22.77
2017-12-21T00:15:26.068Z,22.80
2017-12-21T00:17:53.536Z,20.50
2017-12-21T00:20:20.991Z,22.80
2017-12-21T00:22:48.438Z,22.00
2017-12-21T00:25:15.925Z,25.90
2017-12-21T00:27:44.442Z,22.00
2017-12-21T00:30:11.885Z,23.97
2017-12-21T00:32:39.355Z,20.97
2017-12-21T00:35:06.803Z,25.50
2017-12-21T00:37:34.258Z,24.70
2017-12-21T00:40:01.727Z,23.87
2017-12-21T00:42:29.191Z,21.60
2017-12-21T00:44:56.659Z,24.47
2017-12-21T00:47:24.123Z,24.90
2017-12-21T00:49:51.583Z,21.90
2017-12-21T00:52:19.034Z,24.10
2017-12-21T00:54:46.500Z,23.40
2017-12-21T00:57:13.968Z,23.33
2017-12-21T00:59:42.191Z,23.10
2017-12-21T01:02:09.659Z,27.03
2017-12-21T01:04:37.895Z,25.63
2017-12-21T01:07:05.350Z,22.93
2017-12-21T01:09:32.802Z,26.10
2017-12-21T01:12:01.034Z,25.77
2017-12-21T01:14:28.493Z,21.80
2017-12-21T01:16:55.946Z,26.93
2017-12-21T01:19:23.415Z,26.33
2017-12-21T01:21:50.875Z,23.90
2017-12-21T01:24:18.330Z,22.80
2017-12-21T01:26:45.800Z,24.80
2017-12-21T01:29:14.020Z,23.70
2017-12-21T01:31:41.481Z,24.17
2017-12-21T01:34:08.948Z,22.90
2017-12-21T01:36:36.675Z,26.50
2017-12-21T01:39:04.144Z,23.73
2017-12-21T01:41:31.599Z,23.40
2017-12-21T01:43:59.051Z,23.57
2017-12-21T01:46:26.528Z,22.87
2017-12-21T01:48:53.979Z,22.20
2017-12-21T01:51:21.497Z,23.50
2017-12-21T01:53:48.910Z,23.90
2017-12-21T01:56:16.375Z,22.47
2017-12-21T01:58:43.847Z,27.47
2017-12-21T02:01:11.317Z,25.83
2017-12-21T02:03:39.535Z,25.57
2017-12-21T02:06:07.001Z,25.87
2017-12-21T02:08:34.555Z,23.53
2017-12-21T02:11:01.998Z,21.80
2017-12-21T02:13:29.461Z,24.63
2017-12-21T02:15:56.927Z,24.03
2017-12-21T02:18:24.382Z,25.23
2017-12-21T02:20:51.839Z,23.27
2017-12-21T02:23:19.314Z,29.30
2017-12-21T02:25:46.779Z,27.90
2017-12-21T02:28:14.232Z,25.70
2017-12-21T02:30:41.702Z,27.70
2017-12-21T02:33:09.159Z,25.20
2017-12-21T02:35:36.614Z,25.37
2017-12-21T02:38:04.078Z,24.87
2017-12-21T02:40:31.542Z,23.67
2017-12-21T02:42:58.994Z,24.83
2017-12-21T02:45:26.464Z,19.80
2017-12-21T02:47:54.687Z,25.83
2017-12-21T02:50:22.139Z,27.13
2017-12-21T02:52:49.603Z,21.53
2017-12-21T02:55:17.063Z,21.83
2017-12-21T02:57:44.515Z,25.47
2017-12-21T03:00:11.978Z,25.17
2017-12-21T03:02:39.439Z,27.73
2017-12-21T03:05:06.901Z,23.20
2017-12-21T03:07:34.367Z,23.20
2017-12-21T03:10:01.827Z,21.27
2017-12-21T03:12:29.287Z,20.50
2017-12-21T03:14:56.750Z,19.47
2017-12-21T03:17:24.211Z,19.10
2017-12-21T03:19:52.446Z,17.47
2017-12-21T03:22:19.894Z,16.60
2017-12-21T03:24:47.390Z,17.40
2017-12-21T03:27:14.847Z,18.50
2017-12-21T03:29:42.304Z,19.90
2017-12-21T03:32:09.766Z,21.33
2017-12-21T03:34:37.231Z,24.67
2017-12-21T03:37:05.446Z,23.40
2017-12-21T03:39:32.914Z,19.60
2017-12-21T03:42:00.363Z,22.70
2017-12-21T03:44:27.819Z,21.17
2017-12-21T03:46:56.051Z,17.60
2017-12-21T03:49:24.266Z,18.60
2017-12-21T03:51:51.731Z,19.53
2017-12-21T03:54:19.199Z,19.83
2017-12-21T03:56:46.687Z,22.60
2017-12-21T03:59:14.175Z,17.50
2017-12-21T04:01:41.642Z,22.70
2017-12-21T04:04:09.103Z,18.47
2017-12-21T04:06:36.567Z,19.47
2017-12-21T04:09:04.031Z,17.40
2017-12-21T04:11:31.487Z,19.03
2017-12-21T04:13:58.954Z,18.40
2017-12-21T04:16:26.412Z,19.27
2017-12-21T04:18:53.895Z,15.90
2017-12-21T04:21:21.361Z,15.53
2017-12-21T04:23:49.593Z,15.00
2017-12-21T04:26:17.075Z,14.87
2017-12-21T04:28:44.530Z,13.47
2017-12-21T04:31:11.987Z,12.20
2017-12-21T04:33:39.454Z,12.80
2017-12-21T04:36:06.897Z,12.23
2017-12-21T04:38:34.354Z,10.83
2017-12-21T04:41:01.827Z,13.70
2017-12-21T04:43:29.282Z,11.60
2017-12-21T04:45:56.734Z,9.83
2017-12-21T04:48:24.199Z,9.87
2017-12-21T04:50:52.419Z,8.57
2017-12-21T04:53:19.874Z,9.77
2017-12-21T04:55:47.335Z,9.53
2017-12-21T04:58:14.788Z,9.60
2017-12-21T05:00:42.247Z,11.23
2017-12-21T05:03:09.715Z,11.10
2017-12-21T05:05:37.170Z,12.77
2017-12-21T05:08:04.623Z,12.30
2017-12-21T05:10:32.098Z,13.53
2017-12-21T05:12:59.555Z,12.30
2017-12-21T05:15:27.010Z,10.97
2017-12-21T05:17:54.497Z,12.03
2017-12-21T05:20:21.947Z,14.00
2017-12-21T05:22:49.407Z,14.87
2017-12-21T05:25:16.866Z,15.37
2017-12-21T05:27:45.090Z,13.90
2017-12-21T05:30:12.582Z,15.43
2017-12-21T05:32:40.030Z,13.90
2017-12-21T05:35:07.490Z,12.53
2017-12-21T05:37:34.951Z,13.97
2017-12-21T05:40:02.424Z,13.37
2017-12-21T05:42:29.878Z,13.33
2017-12-21T05:44:57.338Z,12.27
2017-12-21T05:47:25.567Z,14.00
2017-12-21T05:49:53.050Z,12.40
2017-12-21T05:52:20.518Z,13.57
2017-12-21T05:54:48.019Z,14.57
2017-12-21T05:57:15.496Z,12.43
2017-12-21T05:59:42.963Z,12.90
2017-12-21T06:02:10.429Z,15.87
2017-12-21T06:04:37.898Z,15.83
2017-12-21T06:07:05.351Z,17.20
2017-12-21T06:09:32.843Z,14.03
2017-12-21T06:12:01.055Z,15.07
2017-12-21T06:14:28.515Z,16.13
2017-12-21T06:16:55.987Z,18.03
2017-12-21T06:19:23.447Z,18.30
2017-12-21T06:21:50.918Z,15.27
2017-12-21T06:24:18.380Z,16.20
2017-12-21T06:26:45.832Z,14.00
2017-12-21T06:29:13.291Z,19.07
2017-12-21T06:31:40.751Z,14.43
2017-12-21T06:34:08.981Z,20.17
2017-12-21T06:36:36.435Z,14.87
2017-12-21T06:39:03.900Z,17.53
2017-12-21T06:41:31.372Z,19.60
2017-12-21T06:43:58.827Z,18.20
2017-12-21T06:46:26.284Z,19.70
2017-12-21T06:48:53.770Z,18.33
2017-12-21T06:51:21.986Z,20.23
2017-12-21T06:53:49.451Z,26.57
2017-12-21T06:56:16.927Z,45.77
2017-12-21T06:58:44.391Z,52.23
2017-12-21T07:01:11.868Z,46.53
2017-12-21T07:03:39.326Z,42.23
2017-12-21T07:06:07.554Z,39.00
2017-12-21T07:08:35.036Z,24.07
2017-12-21T07:11:02.491Z,18.80
2017-12-21T07:13:29.946Z,16.53
2017-12-21T07:15:57.419Z,18.03
2017-12-21T07:18:24.881Z,20.47
2017-12-21T07:20:52.341Z,31.73
2017-12-21T07:23:19.803Z,24.33
2017-12-21T07:25:48.036Z,31.77
2017-12-21T07:28:15.500Z,34.93
2017-12-21T07:30:42.966Z,33.50
2017-12-21T07:33:10.427Z,35.20
2017-12-21T07:35:37.887Z,20.27
2017-12-21T07:38:05.356Z,16.93
2017-12-21T07:40:33.602Z,16.50
2017-12-21T07:43:01.101Z,15.00
2017-12-21T07:45:29.333Z,16.50
2017-12-21T07:47:56.786Z,18.50
2017-12-21T07:50:24.251Z,17.50
2017-12-21T07:52:51.707Z,17.80
2017-12-21T07:55:19.168Z,18.00
2017-12-21T07:57:46.643Z,22.13
2017-12-21T08:00:14.099Z,22.57
2017-12-21T08:02:41.582Z,20.20
2017-12-21T08:05:09.059Z,17.33
2017-12-21T08:07:36.519Z,23.03
2017-12-21T08:10:03.974Z,19.63
2017-12-21T08:12:31.460Z,17.03
2017-12-21T08:14:58.914Z,15.93
2017-12-21T08:17:26.378Z,19.77
2017-12-21T08:19:53.898Z,17.07
2017-12-21T08:22:21.350Z,19.20
2017-12-21T08:24:48.827Z,19.00
2017-12-21T08:27:16.302Z,22.30
2017-12-21T08:29:43.754Z,22.50
2017-12-21T08:32:11.212Z,16.70
2017-12-21T08:34:38.686Z,20.37
2017-12-21T08:37:06.151Z,17.47
2017-12-21T08:39:33.614Z,16.40
2017-12-21T08:42:01.856Z,20.00
2017-12-21T08:44:29.340Z,19.67
2017-12-21T08:46:56.788Z,15.20
2017-12-21T08:49:24.260Z,16.73
2017-12-21T08:51:52.486Z,16.70
2017-12-21T08:54:19.947Z,18.17
2017-12-21T08:56:47.419Z,16.40
2017-12-21T08:59:14.877Z,18.07
2017-12-21T09:01:42.338Z,15.17
2017-12-21T09:04:09.810Z,14.20
2017-12-21T09:06:37.274Z,16.70
2017-12-21T09:09:05.494Z,17.07
2017-12-21T09:11:32.966Z,17.40
2017-12-21T09:14:00.420Z,16.80
2017-12-21T09:16:27.887Z,16.03
2017-12-21T09:18:55.360Z,17.03
2017-12-21T09:21:22.818Z,17.60
2017-12-21T09:23:50.282Z,16.40
2017-12-21T09:26:17.752Z,17.33
2017-12-21T09:28:45.973Z,16.10
2017-12-21T09:31:13.466Z,15.97
2017-12-21T09:33:40.927Z,20.13
2017-12-21T09:36:08.383Z,18.70
2017-12-21T09:38:35.893Z,19.87
2017-12-21T09:41:03.338Z,15.53
2017-12-21T09:43:30.792Z,15.10
2017-12-21T09:45:58.268Z,19.57
2017-12-21T09:48:25.727Z,19.03
2017-12-21T09:50:53.207Z,15.77
2017-12-21T09:53:20.661Z,20.30
2017-12-21T09:55:48.110Z,16.73
2017-12-21T09:58:15.599Z,21.50
2017-12-21T10:00:43.833Z,25.33
2017-12-21T10:03:11.307Z,19.13
2017-12-21T10:05:38.759Z,19.97
2017-12-21T10:08:06.220Z,18.47
2017-12-21T10:10:33.698Z,21.60
2017-12-21T10:13:01.168Z,19.50
2017-12-21T10:15:29.391Z,22.80
2017-12-21T10:17:56.884Z,19.73
2017-12-21T10:20:24.338Z,23.00
2017-12-21T10:22:51.802Z,20.40
2017-12-21T10:25:19.260Z,19.53
2017-12-21T10:27:46.732Z,21.60
2017-12-21T10:30:14.962Z,17.27
2017-12-21T10:32:42.423Z,21.13
2017-12-21T10:35:09.883Z,19.83
2017-12-21T10:37:37.354Z,20.30
2017-12-21T10:40:04.821Z,17.97
2017-12-21T10:42:33.055Z,18.10
2017-12-21T10:45:00.519Z,17.77
2017-12-21T10:47:27.979Z,18.17
2017-12-21T10:49:56.222Z,19.17
2017-12-21T10:52:23.692Z,17.53
2017-12-21T10:54:51.151Z,19.00
2017-12-21T10:57:18.636Z,19.60
2017-12-21T10:59:46.095Z,20.17
2017-12-21T11:02:13.588Z,17.20
2017-12-21T11:04:41.063Z,18.63
2017-12-21T11:07:08.524Z,19.70
2017-12-21T11:09:35.992Z,21.43
2017-12-21T11:12:03.462Z,19.17
2017-12-21T11:14:30.906Z,21.27
2017-12-21T11:16:58.377Z,19.33
2017-12-21T11:19:25.830Z,18.37
2017-12-21T11:21:53.290Z,17.97
2017-12-21T11:24:20.771Z,20.33
2017-12-21T11:26:48.277Z,18.73
2017-12-21T11:29:15.736Z,19.13
2017-12-21T11:31:43.203Z,16.97
2017-12-21T11:34:10.664Z,18.57
2017-12-21T11:36:38.134Z,18.90
2017-12-21T11:39:05.607Z,21.83
2017-12-21T11:41:33.065Z,22.37
2017-12-21T11:44:00.540Z,18.30
2017-12-21T11:46:28.757Z,14.10
2017-12-21T11:48:56.226Z,17.57
2017-12-21T11:51:23.694Z,15.93
2017-12-21T11:53:51.153Z,17.40
2017-12-21T11:56:18.614Z,18.10
2017-12-21T11:58:46.087Z,17.83
2017-12-21T12:01:13.591Z,20.20
2017-12-21T12:03:41.071Z,15.70
2017-12-21T12:06:08.551Z,19.47
2017-12-21T12:08:36.031Z,15.20
2017-12-21T12:11:04.267Z,15.97
2017-12-21T12:13:31.766Z,14.83
2017-12-21T12:15:59.999Z,17.03
2017-12-21T12:18:27.470Z,17.47
2017-12-21T12:20:54.931Z,15.83
2017-12-21T12:23:23.188Z,15.37
2017-12-21T12:25:50.677Z,13.33
2017-12-21T12:28:18.899Z,19.40
2017-12-21T12:30:46.363Z,14.67
2017-12-21T12:33:13.827Z,17.90
2017-12-21T12:35:41.295Z,17.13
2017-12-21T12:38:08.776Z,16.60
2017-12-21T12:40:36.235Z,15.77
2017-12-21T12:43:04.464Z,16.60
2017-12-21T12:45:31.969Z,17.60
2017-12-21T12:48:00.202Z,19.10
2017-12-21T12:50:27.667Z,19.60
2017-12-21T12:52:55.140Z,19.67
2017-12-21T12:55:22.599Z,19.03
2017-12-21T12:57:50.063Z,15.93
2017-12-21T13:00:17.530Z,17.93
2017-12-21T13:02:45.759Z,18.80
2017-12-21T13:05:13.223Z,17.97
2017-12-21T13:07:40.690Z,21.73
2017-12-21T13:10:08.209Z,17.77
2017-12-21T13:12:35.673Z,20.43
2017-12-21T13:15:03.148Z,22.47
2017-12-21T13:17:30.607Z,22.63
2017-12-21T13:19:58.092Z,24.40
2017-12-21T13:22:25.551Z,20.73
2017-12-21T13:24:53.042Z,20.40
2017-12-21T13:27:20.515Z,20.77
2017-12-21T13:29:47.977Z,21.30
2017-12-21T13:32:16.202Z,18.47
2017-12-21T13:34:44.482Z,18.07
2017-12-21T13:37:12.703Z,18.50
2017-12-21T13:39:40.201Z,16.57
2017-12-21T13:42:07.667Z,18.17
2017-12-21T13:44:35.916Z,18.90
2017-12-21T13:47:03.372Z,18.60
2017-12-21T13:49:30.845Z,15.27
2017-12-21T13:51:58.304Z,16.60
2017-12-21T13:54:25.770Z,16.70
2017-12-21T13:56:53.990Z,16.70
2017-12-21T13:59:21.447Z,16.40
2017-12-21T14:01:48.918Z,15.60
2017-12-21T14:04:16.379Z,17.13
2017-12-21T14:06:43.846Z,18.40
2017-12-21T14:09:11.319Z,17.40
2017-12-21T14:11:38.778Z,15.60
2017-12-21T14:14:07.002Z,16.07
2017-12-21T14:16:34.470Z,15.53
2017-12-21T14:19:01.935Z,15.83
2017-12-21T14:21:29.406Z,14.90
2017-12-21T14:23:56.879Z,16.30
2017-12-21T14:26:24.340Z,16.97
2017-12-21T14:28:52.578Z,14.43
2017-12-21T14:31:20.044Z,18.17
2017-12-21T14:33:47.503Z,19.30
2017-12-21T14:36:14.994Z,17.10
2017-12-21T14:38:42.471Z,16.90
2017-12-21T14:41:09.938Z,15.37
2017-12-21T14:43:37.404Z,16.77
2017-12-21T14:46:04.871Z,18.30
2017-12-21T14:48:32.335Z,19.17
2017-12-21T14:50:59.803Z,19.30
2017-12-21T14:53:27.267Z,19.80
2017-12-21T14:55:56.336Z,21.23
2017-12-21T14:58:23.808Z,20.60
2017-12-21T15:00:51.292Z,17.70
2017-12-21T15:03:18.780Z,22.10
2017-12-21T15:05:46.242Z,21.10
2017-12-21T15:08:13.709Z,22.00
2017-12-21T15:10:41.168Z,21.27
2017-12-21T15:13:08.634Z,23.07
2017-12-21T15:15:36.099Z,21.33
2017-12-21T15:18:03.568Z,25.63
2017-12-21T15:20:31.034Z,22.60
2017-12-21T15:22:58.491Z,19.63
2017-12-21T15:25:25.959Z,19.70
2017-12-21T15:27:54.184Z,20.17
2017-12-21T15:30:21.646Z,24.20
2017-12-21T15:32:49.115Z,21.73
2017-12-21T15:35:16.573Z,22.30
2017-12-21T15:37:44.052Z,18.43
2017-12-21T15:40:11.515Z,15.10
2017-12-21T15:42:39.734Z,18.50
2017-12-21T15:45:07.217Z,16.07
2017-12-21T15:47:34.675Z,15.20
2017-12-21T15:50:02.134Z,17.70
2017-12-21T15:52:29.604Z,18.17
2017-12-21T15:54:57.059Z,15.50
2017-12-21T15:57:24.518Z,16.87
2017-12-21T15:59:52.028Z,16.13
2017-12-21T16:02:19.487Z,16.37
2017-12-21T16:04:46.952Z,16.17
2017-12-21T16:07:14.402Z,20.47
2017-12-21T16:09:41.863Z,18.77
2017-12-21T16:12:09.343Z,20.37
2017-12-21T16:14:36.794Z,20.73
2017-12-21T16:17:04.260Z,17.00
2017-12-21T16:19:31.714Z,17.30
2017-12-21T16:21:59.188Z,19.20
2017-12-21T16:24:26.694Z,19.67
2017-12-21T16:26:54.138Z,18.47
2017-12-21T16:29:21.598Z,19.90
2017-12-21T16:31:49.090Z,18.50
2017-12-21T16:34:16.535Z,16.23
2017-12-21T16:36:43.991Z,23.13
2017-12-21T16:39:11.458Z,21.77
2017-12-21T16:41:38.924Z,22.30
2017-12-21T16:44:06.380Z,17.93
2017-12-21T16:46:33.883Z,18.53
2017-12-21T16:49:02.109Z,18.63
2017-12-21T16:51:29.570Z,20.90
2017-12-21T16:53:57.044Z,14.83
2017-12-21T16:56:24.504Z,21.40
2017-12-21T16:58:51.976Z,14.67
2017-12-21T17:01:20.212Z,16.67
2017-12-21T17:03:47.658Z,16.97
2017-12-21T17:06:15.125Z,18.67
2017-12-21T17:08:42.602Z,17.20
2017-12-21T17:11:10.056Z,14.30
2017-12-21T17:13:37.510Z,17.80
2017-12-21T17:16:04.981Z,14.90
2017-12-21T17:18:32.447Z,19.67
2017-12-21T17:21:00.663Z,15.40
2017-12-21T17:23:28.144Z,19.17
2017-12-21T17:25:55.602Z,19.00
2017-12-21T17:28:23.059Z,21.10
2017-12-21T17:30:50.540Z,16.40
2017-12-21T17:33:17.988Z,15.47
2017-12-21T17:35:45.456Z,20.80
2017-12-21T17:38:12.916Z,16.67
2017-12-21T17:40:41.143Z,14.80
2017-12-21T17:43:08.606Z,15.20
2017-12-21T17:45:36.067Z,16.60
2017-12-21T17:48:03.523Z,17.10
2017-12-21T17:50:31.003Z,15.37
2017-12-21T17:52:58.455Z,14.90
2017-12-21T17:55:25.933Z,15.40
2017-12-21T17:57:54.159Z,13.73
2017-12-21T18:00:21.627Z,17.07
2017-12-21T18:02:49.096Z,16.10
2017-12-21T18:05:16.559Z,15.53
2017-12-21T18:07:44.025Z,14.30
2017-12-21T18:10:11.490Z,21.43
2017-12-21T18:12:39.720Z,14.13
2017-12-21T18:15:07.211Z,15.20
2017-12-21T18:17:34.659Z,14.37
2017-12-21T18:20:02.115Z,16.80
2017-12-21T18:22:29.566Z,17.73
2017-12-21T18:24:57.038Z,18.20
2017-12-21T18:27:24.492Z,15.27
2017-12-21T18:29:51.963Z,13.70
2017-12-21T18:32:20.194Z,16.60
2017-12-21T18:34:47.718Z,15.83
2017-12-21T18:37:15.967Z,14.17
2017-12-21T18:39:44.198Z,14.80
2017-12-21T18:42:11.667Z,15.10
2017-12-21T18:44:39.123Z,15.10
2017-12-21T18:47:06.591Z,15.07
2017-12-21T18:49:34.058Z,15.43
2017-12-21T18:52:01.514Z,17.90
2017-12-21T18:54:31.692Z,15.07
2017-12-21T18:56:59.166Z,14.40
2017-12-21T18:59:26.623Z,14.90
2017-12-21T19:01:54.154Z,14.50
2017-12-21T19:04:21.615Z,16.07
2017-12-21T19:06:49.084Z,15.30
2017-12-21T19:09:16.544Z,15.93
2017-12-21T19:11:44.006Z,16.30
2017-12-21T19:14:11.473Z,16.13
2017-12-21T19:16:38.926Z,16.03
2017-12-21T19:19:06.407Z,17.73
2017-12-21T19:21:33.887Z,17.17
2017-12-21T19:24:01.347Z,17.53
2017-12-21T19:26:28.824Z,27.47
2017-12-21T19:28:56.286Z,16.30
2017-12-21T19:31:23.739Z,18.37
2017-12-21T19:33:51.211Z,18.27
2017-12-21T19:36:18.663Z,19.10
2017-12-21T19:38:46.124Z,19.47
2017-12-21T19:41:13.614Z,26.60
2017-12-21T19:43:41.079Z,19.13
2017-12-21T19:46:08.542Z,16.33
2017-12-21T19:48:36.762Z,17.83
2017-12-21T19:51:04.218Z,23.47
2017-12-21T19:53:31.687Z,19.77
2017-12-21T19:55:59.151Z,15.73
2017-12-21T19:58:26.615Z,16.27
2017-12-21T20:00:54.087Z,17.40
2017-12-21T20:03:21.543Z,23.53
2017-12-21T20:05:48.994Z,18.27
2017-12-21T20:08:16.464Z,26.73
2017-12-21T20:10:43.919Z,17.10
2017-12-21T20:13:12.155Z,24.77
2017-12-21T20:15:39.638Z,18.60
2017-12-21T20:18:07.110Z,23.70
2017-12-21T20:20:34.559Z,15.37
2017-12-21T20:23:02.068Z,21.53
2017-12-21T20:25:29.526Z,24.83
2017-12-21T20:27:56.983Z,17.60
2017-12-21T20:30:24.462Z,17.57
2017-12-21T20:32:51.932Z,19.33
2017-12-21T20:35:19.383Z,17.47
2017-12-21T20:37:46.859Z,23.15
2017-12-21T20:40:14.324Z,18.47
2017-12-21T20:42:42.547Z,19.23
2017-12-21T20:45:10.030Z,26.80
2017-12-21T20:47:37.482Z,20.57
2017-12-21T20:50:04.940Z,18.93
2017-12-21T20:52:32.423Z,14.30
2017-12-21T20:54:59.874Z,22.90
2017-12-21T20:57:27.345Z,15.63
2017-12-21T20:59:55.590Z,21.40
2017-12-21T21:02:23.043Z,17.13
2017-12-21T21:04:50.515Z,34.20
2017-12-21T21:07:17.989Z,19.93
2017-12-21T21:09:46.214Z,22.83
2017-12-21T21:12:13.675Z,23.43
2017-12-21T21:14:41.147Z,22.97
2017-12-21T21:17:08.610Z,21.17
2017-12-21T21:19:36.072Z,34.00
2017-12-21T21:22:03.549Z,27.90
2017-12-21T21:24:31.781Z,25.30
2017-12-21T21:26:59.242Z,26.63
2017-12-21T21:29:26.735Z,25.53
2017-12-21T21:31:54.955Z,23.17
2017-12-21T21:34:22.419Z,24.57
2017-12-21T21:36:49.895Z,25.50
2017-12-21T21:39:17.356Z,21.63
2017-12-21T21:41:44.816Z,26.77
2017-12-21T21:44:12.298Z,28.03
2017-12-21T21:46:40.527Z,35.40
2017-12-21T21:49:07.986Z,31.13
2017-12-21T21:51:35.474Z,31.13
2017-12-21T21:54:02.926Z,27.33
2017-12-21T21:56:30.394Z,31.07
2017-12-21T21:58:58.639Z,32.97
2017-12-21T22:01:26.095Z,27.03
2017-12-21T22:03:53.592Z,29.67
2017-12-21T22:06:21.818Z,29.43
2017-12-21T22:08:49.283Z,28.83
2017-12-21T22:11:16.742Z,27.77
2017-12-21T22:13:44.220Z,32.07
2017-12-21T22:16:11.682Z,30.60
2017-12-21T22:18:39.902Z,25.67
2017-12-21T22:21:07.378Z,29.87
2017-12-21T22:23:34.849Z,27.83
2017-12-21T22:26:02.328Z,28.10
2017-12-21T22:28:30.575Z,23.00
2017-12-21T22:30:58.049Z,24.37
2017-12-21T22:33:25.503Z,30.63
2017-12-21T22:35:52.962Z,19.63
2017-12-21T22:38:20.426Z,21.13
2017-12-21T22:40:47.934Z,20.87
2017-12-21T22:43:15.398Z,17.90
2017-12-21T22:45:42.856Z,21.67
2017-12-21T22:48:10.311Z,14.10
2017-12-21T22:50:37.775Z,17.47
2017-12-21T22:53:05.235Z,15.93
2017-12-21T22:55:32.690Z,15.77
2017-12-21T22:58:00.164Z,14.97
2017-12-21T23:00:27.633Z,13.47
2017-12-21T23:02:55.087Z,13.97
2017-12-21T23:05:22.566Z,12.60
2017-12-21T23:07:50.803Z,13.93
2017-12-21T23:10:18.267Z,12.30
2017-12-21T23:12:45.733Z,10.10
2017-12-21T23:15:13.188Z,8.50
2017-12-21T23:17:40.634Z,9.97
2017-12-21T23:20:08.127Z,10.77
2017-12-21T23:22:36.342Z,7.63
2017-12-21T23:25:03.803Z,6.70
2017-12-21T23:27:31.263Z,8.93
2017-12-21T23:29:58.710Z,6.27
2017-12-21T23:32:26.167Z,6.90
2017-12-21T23:34:53.628Z,5.27
2017-12-21T23:37:21.116Z,7.70
2017-12-21T23:39:48.572Z,5.43
2017-12-21T23:42:16.040Z,6.03
2017-12-21T23:44:44.254Z,6.77
2017-12-21T23:47:11.712Z,7.40
2017-12-21T23:49:39.183Z,7.10
2017-12-21T23:52:06.633Z,6.20
2017-12-21T23:54:34.083Z,4.73
2017-12-21T23:57:01.544Z,5.87
2017-12-21T23:59:28.991Z,5.80
